createdAt,value
2018-06-27T00:01:42.844Z,17.30
2018-06-27T00:04:13.607Z,17.30
2018-06-27T00:06:44.547Z,17.30
2018-06-27T00:09:15.452Z,17.20
2018-06-27T00:11:46.468Z,17.30
2018-06-27T00:14:17.583Z,17.20
2018-06-27T00:16:48.619Z,17.20
2018-06-27T00:19:19.587Z,17.00
2018-06-27T00:21:50.424Z,16.90
2018-06-27T00:26:52.757Z,16.80
2018-06-27T00:29:24.260Z,16.60
2018-06-27T00:31:56.193Z,16.60
2018-06-27T00:34:27.622Z,16.60
2018-06-27T00:36:59.179Z,16.60
2018-06-27T00:39:30.921Z,16.60
2018-06-27T00:42:02.500Z,16.60
2018-06-27T00:44:34.360Z,16.60
2018-06-27T00:47:05.988Z,16.60
2018-06-27T00:49:37.258Z,16.60
2018-06-27T00:52:08.582Z,16.80
2018-06-27T00:54:40.085Z,16.80
2018-06-27T00:57:11.726Z,16.80
2018-06-27T00:59:43.287Z,16.80
2018-06-27T01:02:15.679Z,16.80
2018-06-27T01:04:47.170Z,16.70
2018-06-27T01:07:18.067Z,16.60
2018-06-27T01:09:48.908Z,16.60
2018-06-27T01:12:19.726Z,16.50
2018-06-27T01:14:51.179Z,16.60
2018-06-27T01:17:22.097Z,16.60
2018-06-27T01:19:52.878Z,16.50
2018-06-27T01:24:53.917Z,16.50
2018-06-27T01:27:24.823Z,16.50
2018-06-27T01:29:55.589Z,16.60
2018-06-27T01:32:26.442Z,16.60
2018-06-27T01:34:57.311Z,16.50
2018-06-27T01:37:28.123Z,16.60
2018-06-27T01:39:58.972Z,16.50
2018-06-27T01:42:29.812Z,16.50
2018-06-27T01:45:00.653Z,16.40
2018-06-27T01:47:31.837Z,16.40
2018-06-27T01:50:02.616Z,16.40
2018-06-27T01:52:34.944Z,16.40
2018-06-27T01:55:05.833Z,16.30
2018-06-27T01:57:36.629Z,16.30
2018-06-27T02:00:08.874Z,16.30
2018-06-27T02:02:39.693Z,16.30
2018-06-27T02:05:10.491Z,16.20
2018-06-27T02:07:42.164Z,16.30
2018-06-27T02:10:13.764Z,16.40
2018-06-27T02:12:45.011Z,16.40
2018-06-27T02:15:15.856Z,16.40
2018-06-27T02:17:47.560Z,16.30
2018-06-27T02:20:19.253Z,16.20
2018-06-27T02:22:50.219Z,16.20
2018-06-27T02:25:21.179Z,16.10
2018-06-27T02:27:52.787Z,16.10
2018-06-27T02:30:24.108Z,16.10
2018-06-27T02:32:55.319Z,16.10
2018-06-27T02:35:26.508Z,16.00
2018-06-27T02:37:58.133Z,16.00
2018-06-27T02:40:29.501Z,16.00
2018-06-27T02:43:00.664Z,16.00
2018-06-27T02:45:32.009Z,16.10
2018-06-27T02:48:03.463Z,16.10
2018-06-27T02:50:34.840Z,16.00
2018-06-27T02:55:36.869Z,16.00
2018-06-27T02:58:08.258Z,16.00
2018-06-27T03:00:39.674Z,16.00
2018-06-27T03:03:11.056Z,16.00
2018-06-27T03:05:42.686Z,16.10
2018-06-27T03:08:14.217Z,16.00
2018-06-27T03:10:45.656Z,15.90
2018-06-27T03:13:17.295Z,15.90
2018-06-27T03:15:48.793Z,15.90
2018-06-27T03:18:20.439Z,15.90
2018-06-27T03:20:51.908Z,15.80
2018-06-27T03:23:23.398Z,16.00
2018-06-27T03:25:54.747Z,16.00
2018-06-27T03:28:25.971Z,16.10
2018-06-27T03:30:56.894Z,16.20
2018-06-27T03:33:27.673Z,16.20
2018-06-27T03:35:58.633Z,16.30
2018-06-27T03:38:29.771Z,16.40
2018-06-27T03:41:00.551Z,16.60
2018-06-27T03:43:31.936Z,16.60
2018-06-27T03:46:03.146Z,16.80
2018-06-27T03:48:34.014Z,17.00
2018-06-27T03:51:04.912Z,17.10
2018-06-27T03:53:40.578Z,17.10
2018-06-27T03:58:43.780Z,17.50
2018-06-27T04:01:16.497Z,17.30
2018-06-27T04:03:49.422Z,17.40
2018-06-27T04:06:20.861Z,17.60
2018-06-27T04:08:52.104Z,17.70
2018-06-27T04:11:23.533Z,17.70
2018-06-27T04:13:55.028Z,18.10
2018-06-27T04:16:26.502Z,18.20
2018-06-27T04:18:58.468Z,18.30
2018-06-27T04:21:29.865Z,18.80
2018-06-27T04:24:01.057Z,18.90
2018-06-27T04:26:32.417Z,19.00
2018-06-27T04:29:04.028Z,19.00
2018-06-27T04:31:34.879Z,19.10
2018-06-27T04:34:05.792Z,19.20
2018-06-27T04:36:36.580Z,19.40
2018-06-27T04:39:10.940Z,19.10
2018-06-27T04:41:42.137Z,19.30
2018-06-27T04:44:13.147Z,19.60
2018-06-27T04:46:44.031Z,19.70
2018-06-27T04:49:14.938Z,19.90
2018-06-27T04:51:46.947Z,19.90
2018-06-27T04:54:19.021Z,20.20
2018-06-27T04:56:50.397Z,20.30
2018-06-27T04:59:22.106Z,20.20
2018-06-27T05:01:54.109Z,20.40
2018-06-27T05:04:24.887Z,20.40
2018-06-27T05:06:55.962Z,20.90
2018-06-27T05:09:26.945Z,20.90
2018-06-27T05:11:57.874Z,21.00
2018-06-27T05:14:28.774Z,21.10
2018-06-27T05:16:59.543Z,21.10
2018-06-27T05:19:30.760Z,21.20
2018-06-27T05:22:01.669Z,21.20
2018-06-27T05:24:32.649Z,21.50
2018-06-27T05:27:03.515Z,21.70
2018-06-27T05:29:34.418Z,21.90
2018-06-27T05:32:05.511Z,21.80
2018-06-27T05:34:36.368Z,22.10
2018-06-27T05:42:07.979Z,22.30
2018-06-27T05:44:38.722Z,22.60
2018-06-27T05:47:09.557Z,22.80
2018-06-27T05:49:40.407Z,22.70
2018-06-27T05:52:11.278Z,23.00
2018-06-27T05:54:42.147Z,23.10
2018-06-27T05:57:12.947Z,23.50
2018-06-27T05:59:44.498Z,23.90
2018-06-27T06:02:15.488Z,23.80
2018-06-27T06:04:46.302Z,23.30
2018-06-27T06:07:17.160Z,23.60
2018-06-27T06:09:48.286Z,24.10
2018-06-27T06:12:19.192Z,24.40
2018-06-27T06:14:49.980Z,24.30
2018-06-27T06:17:20.862Z,24.50
2018-06-27T06:19:51.763Z,24.90
2018-06-27T06:22:22.682Z,24.60
2018-06-27T06:24:53.539Z,24.80
2018-06-27T06:27:24.357Z,25.00
2018-06-27T06:29:55.241Z,25.00
2018-06-27T06:32:26.118Z,25.50
2018-06-27T06:34:57.044Z,25.50
2018-06-27T06:37:28.004Z,25.20
2018-06-27T06:39:58.893Z,25.40
2018-06-27T06:42:29.746Z,25.90
2018-06-27T06:45:00.626Z,25.90
2018-06-27T06:47:32.381Z,25.90
2018-06-27T06:50:04.164Z,26.00
2018-06-27T06:52:35.602Z,26.80
2018-06-27T06:55:07.149Z,26.90
2018-06-27T06:57:38.405Z,27.00
2018-06-27T07:00:09.811Z,27.40
2018-06-27T07:02:41.151Z,27.60
2018-06-27T07:05:12.022Z,27.50
2018-06-27T07:07:42.873Z,27.50
2018-06-27T07:10:14.380Z,27.40
2018-06-27T07:12:45.241Z,27.80
2018-06-27T07:15:16.137Z,27.50
2018-06-27T07:17:47.827Z,27.10
2018-06-27T07:20:18.781Z,26.90
2018-06-27T07:22:49.719Z,27.50
2018-06-27T07:25:20.612Z,27.70
2018-06-27T07:27:51.499Z,27.30
2018-06-27T07:30:22.370Z,27.90
2018-06-27T07:32:53.684Z,28.80
2018-06-27T07:35:24.551Z,28.50
2018-06-27T07:37:55.423Z,28.70
2018-06-27T07:42:56.508Z,27.00
2018-06-27T07:45:28.072Z,26.50
2018-06-27T07:47:59.448Z,26.10
2018-06-27T07:50:31.156Z,26.60
2018-06-27T07:53:02.669Z,27.30
2018-06-27T07:55:33.908Z,27.20
2018-06-27T07:58:05.239Z,27.10
2018-06-27T08:00:36.593Z,26.70
2018-06-27T08:03:08.068Z,26.80
2018-06-27T08:05:39.310Z,26.30
2018-06-27T08:08:11.041Z,26.70
2018-06-27T08:10:42.667Z,26.80
2018-06-27T08:13:14.159Z,27.00
2018-06-27T08:15:45.498Z,27.50
2018-06-27T08:18:16.436Z,28.10
2018-06-27T08:20:47.448Z,29.00
2018-06-27T08:23:18.297Z,28.80
2018-06-27T08:25:52.900Z,28.90
2018-06-27T08:28:24.080Z,29.80
2018-06-27T08:30:54.887Z,29.80
2018-06-27T08:33:25.784Z,29.70
2018-06-27T08:35:56.725Z,30.00
2018-06-27T08:38:27.553Z,30.60
2018-06-27T08:40:58.429Z,31.00
2018-06-27T08:43:29.488Z,30.80
2018-06-27T08:46:00.362Z,30.50
2018-06-27T08:48:31.265Z,29.90
2018-06-27T08:51:02.078Z,30.40
2018-06-27T08:53:33.057Z,30.30
2018-06-27T08:56:03.880Z,30.30
2018-06-27T08:58:34.788Z,30.30
2018-06-27T09:01:05.787Z,30.30
2018-06-27T09:03:37.299Z,30.50
2018-06-27T09:06:08.688Z,30.60
2018-06-27T09:08:39.635Z,30.80
2018-06-27T09:11:10.516Z,31.10
2018-06-27T09:13:41.329Z,31.20
2018-06-27T09:16:12.214Z,30.70
2018-06-27T09:18:43.164Z,31.20
2018-06-27T09:21:13.948Z,31.50
2018-06-27T09:23:44.770Z,30.60
2018-06-27T09:26:15.974Z,30.30
2018-06-27T09:28:47.559Z,30.70
2018-06-27T09:31:18.585Z,30.80
2018-06-27T09:33:49.414Z,30.40
2018-06-27T09:36:20.332Z,30.60
2018-06-27T09:38:51.096Z,30.30
2018-06-27T09:41:22.091Z,30.50
2018-06-27T09:43:53.745Z,30.80
2018-06-27T09:46:25.245Z,30.30
2018-06-27T09:48:58.251Z,29.80
2018-06-27T09:51:29.743Z,30.10
2018-06-27T09:54:01.552Z,30.40
2018-06-27T09:59:03.383Z,31.00
2018-06-27T10:01:34.209Z,31.30
2018-06-27T10:04:14.880Z,31.30
2018-06-27T10:06:45.979Z,31.50
2018-06-27T10:09:16.875Z,31.40
2018-06-27T10:11:48.228Z,31.20
2018-06-27T10:14:19.052Z,31.60
2018-06-27T10:16:50.064Z,31.10
2018-06-27T10:19:20.963Z,30.50
2018-06-27T10:21:51.904Z,30.70
2018-06-27T10:24:22.672Z,31.30
2018-06-27T10:26:54.508Z,31.80
2018-06-27T10:29:25.272Z,31.70
2018-06-27T10:31:56.409Z,31.10
2018-06-27T10:34:27.576Z,31.40
2018-06-27T10:36:58.439Z,30.70
2018-06-27T10:39:29.362Z,30.30
2018-06-27T10:42:00.838Z,30.60
2018-06-27T10:44:31.735Z,30.80
2018-06-27T10:47:02.538Z,30.20
2018-06-27T10:49:33.464Z,29.20
2018-06-27T10:52:04.457Z,29.00
2018-06-27T10:54:39.687Z,28.80
2018-06-27T10:57:10.461Z,28.50
2018-06-27T10:59:41.284Z,29.00
2018-06-27T11:02:12.913Z,29.20
2018-06-27T11:04:43.861Z,29.30
2018-06-27T11:07:14.748Z,29.40
2018-06-27T11:09:45.598Z,29.70
2018-06-27T11:12:16.474Z,29.90
2018-06-27T11:14:47.348Z,30.20
2018-06-27T11:17:18.205Z,30.10
2018-06-27T11:19:49.054Z,29.60
2018-06-27T11:22:19.978Z,29.10
2018-06-27T11:24:50.717Z,28.60
2018-06-27T11:27:22.058Z,28.10
2018-06-27T11:32:25.431Z,28.40
2018-06-27T11:34:57.317Z,28.70
2018-06-27T11:37:28.284Z,28.40
2018-06-27T11:39:59.089Z,28.10
2018-06-27T11:42:30.039Z,28.40
2018-06-27T11:45:00.871Z,28.60
2018-06-27T11:47:31.663Z,28.70
2018-06-27T11:50:02.650Z,28.60
2018-06-27T11:52:33.599Z,28.60
2018-06-27T11:55:09.610Z,28.90
2018-06-27T11:57:41.672Z,28.90
2018-06-27T12:00:12.662Z,28.60
2018-06-27T12:02:43.933Z,28.50
2018-06-27T12:05:15.632Z,28.60
2018-06-27T12:07:46.971Z,28.60
2018-06-27T12:10:18.389Z,28.70
2018-06-27T12:12:50.702Z,28.60
2018-06-27T12:15:22.595Z,28.60
2018-06-27T12:17:53.928Z,28.60
2018-06-27T12:20:25.266Z,28.20
2018-06-27T12:22:56.294Z,28.30
2018-06-27T12:25:27.409Z,28.00
2018-06-27T12:27:58.364Z,27.80
2018-06-27T12:30:29.361Z,27.80
2018-06-27T12:33:00.294Z,27.90
2018-06-27T12:35:31.110Z,27.70
2018-06-27T12:38:01.921Z,27.70
2018-06-27T12:40:32.767Z,27.70
2018-06-27T12:43:03.679Z,28.00
2018-06-27T12:45:34.631Z,28.10
2018-06-27T12:48:06.316Z,28.00
2018-06-27T12:50:37.150Z,28.00
2018-06-27T12:55:38.457Z,27.80
2018-06-27T12:58:09.298Z,28.00
2018-06-27T13:00:40.177Z,28.30
2018-06-27T13:03:11.124Z,28.40
2018-06-27T13:05:41.974Z,28.00
2018-06-27T13:08:12.906Z,27.40
2018-06-27T13:13:13.970Z,27.40
2018-06-27T13:15:44.759Z,27.20
2018-06-27T13:18:15.604Z,27.00
2018-06-27T13:20:46.417Z,26.70
2018-06-27T13:23:17.307Z,26.70
2018-06-27T13:25:48.173Z,26.60
2018-06-27T13:28:19.024Z,26.60
2018-06-27T13:30:50.036Z,26.70
2018-06-27T13:33:22.260Z,26.00
2018-06-27T13:35:54.268Z,22.90
2018-06-27T13:38:25.780Z,21.80
2018-06-27T13:40:57.168Z,22.10
2018-06-27T13:43:28.510Z,22.20
2018-06-27T13:45:59.905Z,22.10
2018-06-27T13:48:31.526Z,22.40
2018-06-27T13:51:03.801Z,23.00
2018-06-27T13:53:36.653Z,23.20
2018-06-27T13:56:08.487Z,23.10
2018-06-27T13:58:40.108Z,23.50
2018-06-27T14:01:12.241Z,23.70
2018-06-27T14:03:44.140Z,24.00
2018-06-27T14:06:16.442Z,24.30
2018-06-27T14:08:47.961Z,24.30
2018-06-27T14:11:19.524Z,23.80
2018-06-27T14:13:51.125Z,23.90
2018-06-27T14:16:22.576Z,23.90
2018-06-27T14:18:55.070Z,24.00
2018-06-27T14:21:26.708Z,24.10
2018-06-27T14:26:28.860Z,24.20
2018-06-27T14:29:01.149Z,23.90
2018-06-27T14:31:32.043Z,24.20
2018-06-27T14:34:03.058Z,24.20
2018-06-27T14:36:35.017Z,24.30
2018-06-27T14:41:45.212Z,24.50
2018-06-27T14:44:16.928Z,24.50
2018-06-27T14:46:48.577Z,24.70
2018-06-27T14:49:19.931Z,24.70
2018-06-27T14:51:51.606Z,25.00
2018-06-27T14:54:23.414Z,24.90
2018-06-27T14:56:54.900Z,24.90
2018-06-27T14:59:26.498Z,24.90
2018-06-27T15:01:57.846Z,24.90
2018-06-27T15:04:29.638Z,24.90
2018-06-27T15:07:01.507Z,24.90
2018-06-27T15:09:32.716Z,24.50
2018-06-27T15:12:04.039Z,23.70
2018-06-27T15:14:36.200Z,22.30
2018-06-27T15:17:07.908Z,20.70
2018-06-27T15:19:39.603Z,20.10
2018-06-27T15:22:11.447Z,20.00
2018-06-27T15:24:43.172Z,20.50
2018-06-27T15:27:14.067Z,21.10
2018-06-27T15:29:44.981Z,21.70
2018-06-27T15:32:15.864Z,21.70
2018-06-27T15:34:46.843Z,21.50
2018-06-27T15:37:17.781Z,21.40
2018-06-27T15:39:48.808Z,21.40
2018-06-27T15:42:19.846Z,21.50
2018-06-27T15:44:51.007Z,21.60
2018-06-27T15:47:21.983Z,21.90
2018-06-27T15:49:53.200Z,22.30
2018-06-27T15:52:24.367Z,22.30
2018-06-27T15:54:55.277Z,22.20
2018-06-27T15:57:26.332Z,22.30
2018-06-27T15:59:57.308Z,22.40
2018-06-27T16:03:15.668Z,22.30
2018-06-27T16:05:46.702Z,22.30
2018-06-27T16:08:17.722Z,22.20
2018-06-27T16:10:48.671Z,22.30
2018-06-27T16:13:19.820Z,22.40
2018-06-27T16:15:50.802Z,22.50
2018-06-27T16:18:21.692Z,22.50
2018-06-27T16:20:53.350Z,22.50
2018-06-27T16:23:24.906Z,22.50
2018-06-27T16:25:56.554Z,22.60
2018-06-27T16:28:28.391Z,22.60
2018-06-27T16:31:00.503Z,22.50
2018-06-27T16:33:32.058Z,22.30
2018-06-27T16:36:03.581Z,22.40
2018-06-27T16:38:34.640Z,22.40
2018-06-27T16:41:05.839Z,22.40
2018-06-27T16:43:36.902Z,21.60
2018-06-27T16:46:09.974Z,21.20
2018-06-27T16:48:41.806Z,20.60
2018-06-27T16:53:48.460Z,20.10
2018-06-27T16:56:19.426Z,20.60
2018-06-27T16:58:50.451Z,20.90
2018-06-27T17:01:21.633Z,21.00
2018-06-27T17:03:52.595Z,21.10
2018-06-27T17:06:23.657Z,21.30
2018-06-27T17:08:55.468Z,21.40
2018-06-27T17:11:26.525Z,21.30
2018-06-27T17:13:57.533Z,21.40
2018-06-27T17:16:28.599Z,21.70
2018-06-27T17:18:59.714Z,21.90
2018-06-27T17:21:31.037Z,21.60
2018-06-27T17:24:02.408Z,21.40
2018-06-27T17:26:34.354Z,21.20
2018-06-27T17:29:06.217Z,20.90
2018-06-27T17:31:37.477Z,20.90
2018-06-27T17:34:09.136Z,20.70
2018-06-27T17:36:40.445Z,20.80
2018-06-27T17:39:11.609Z,20.70
2018-06-27T17:41:42.633Z,20.90
2018-06-27T17:44:13.643Z,20.60
2018-06-27T17:46:44.598Z,20.60
2018-06-27T17:49:15.742Z,20.70
2018-06-27T17:51:46.913Z,20.80
2018-06-27T17:54:18.646Z,20.80
2018-06-27T17:56:50.185Z,20.60
2018-06-27T17:59:22.233Z,20.30
2018-06-27T18:01:54.716Z,20.30
2018-06-27T18:04:26.514Z,20.20
2018-06-27T18:06:58.020Z,20.10
2018-06-27T18:09:29.622Z,19.90
2018-06-27T18:12:01.074Z,19.80
2018-06-27T18:14:32.572Z,20.10
2018-06-27T18:17:04.239Z,20.00
2018-06-27T18:19:35.858Z,20.10
2018-06-27T18:22:07.827Z,20.00
2018-06-27T18:24:39.363Z,20.00
2018-06-27T18:27:11.408Z,19.70
2018-06-27T18:29:42.934Z,19.60
2018-06-27T18:32:14.887Z,19.60
2018-06-27T18:34:47.705Z,19.60
2018-06-27T18:37:19.537Z,19.60
2018-06-27T18:39:52.314Z,19.60
2018-06-27T18:42:23.774Z,19.40
2018-06-27T18:44:55.096Z,19.50
2018-06-27T18:47:26.496Z,19.40
2018-06-27T18:49:57.871Z,19.40
2018-06-27T18:52:29.289Z,19.20
2018-06-27T18:55:01.113Z,19.20
2018-06-27T18:57:32.585Z,19.10
2018-06-27T19:00:04.564Z,19.00
2018-06-27T19:02:36.766Z,19.10
2018-06-27T19:05:08.707Z,19.20
2018-06-27T19:07:40.731Z,19.20
2018-06-27T19:10:12.053Z,19.30
2018-06-27T19:12:43.540Z,19.40
2018-06-27T19:15:15.380Z,19.30
2018-06-27T19:17:47.148Z,19.10
2018-06-27T19:20:18.533Z,19.00
2018-06-27T19:22:50.152Z,19.00
2018-06-27T19:25:21.926Z,19.10
2018-06-27T19:27:54.378Z,19.20
2018-06-27T19:30:26.574Z,19.20
2018-06-27T19:32:57.936Z,19.30
2018-06-27T19:35:29.726Z,19.30
2018-06-27T19:38:01.418Z,19.20
2018-06-27T19:43:03.970Z,19.10
2018-06-27T19:45:36.077Z,19.10
2018-06-27T19:48:07.202Z,19.00
2018-06-27T19:50:38.452Z,18.90
2018-06-27T19:53:10.795Z,18.90
2018-06-27T19:55:42.496Z,19.00
2018-06-27T19:58:13.981Z,19.00
2018-06-27T20:00:45.877Z,18.90
2018-06-27T20:03:17.124Z,18.70
2018-06-27T20:05:48.564Z,18.50
2018-06-27T20:08:20.113Z,18.60
2018-06-27T20:10:51.779Z,18.40
2018-06-27T20:13:23.496Z,18.30
2018-06-27T20:15:55.119Z,18.30
2018-06-27T20:18:26.604Z,18.30
2018-06-27T20:20:58.165Z,18.10
2018-06-27T20:23:29.555Z,18.10
2018-06-27T20:26:01.374Z,17.90
2018-06-27T20:28:32.848Z,17.80
2018-06-27T20:31:04.314Z,17.90
2018-06-27T20:33:35.854Z,17.80
2018-06-27T20:36:07.785Z,17.80
2018-06-27T20:38:39.325Z,17.90
2018-06-27T20:41:10.648Z,18.00
2018-06-27T20:46:13.601Z,17.90
2018-06-27T20:48:45.090Z,17.80
2018-06-27T20:51:16.541Z,17.80
2018-06-27T20:53:47.888Z,17.90
2018-06-27T20:56:19.363Z,17.90
2018-06-27T20:58:50.785Z,17.90
2018-06-27T21:01:22.338Z,17.80
2018-06-27T21:03:53.703Z,17.90
2018-06-27T21:06:25.267Z,17.80
2018-06-27T21:08:56.960Z,17.80
2018-06-27T21:11:29.724Z,17.90
2018-06-27T21:14:01.187Z,17.70
2018-06-27T21:16:33.191Z,17.70
2018-06-27T21:19:04.586Z,17.70
2018-06-27T21:21:35.934Z,17.80
2018-06-27T21:24:07.699Z,17.80
2018-06-27T21:26:39.235Z,17.70
2018-06-27T21:29:11.131Z,17.70
2018-06-27T21:31:43.003Z,17.60
2018-06-27T21:34:14.399Z,17.70
2018-06-27T21:36:45.916Z,17.70
2018-06-27T21:39:17.267Z,17.60
2018-06-27T21:41:49.541Z,17.70
2018-06-27T21:44:21.121Z,17.70
2018-06-27T21:46:52.949Z,17.70
2018-06-27T21:49:24.509Z,17.60
2018-06-27T21:51:55.869Z,17.60
2018-06-27T21:54:30.335Z,17.50
2018-06-27T21:57:01.637Z,17.50
2018-06-27T21:59:32.617Z,17.50
2018-06-27T22:02:03.925Z,17.50
2018-06-27T22:04:34.968Z,17.50
2018-06-27T22:07:05.975Z,17.50
2018-06-27T22:09:36.860Z,17.40
2018-06-27T22:12:07.847Z,17.40
2018-06-27T22:14:38.629Z,17.40
2018-06-27T22:17:09.572Z,17.40
2018-06-27T22:19:41.036Z,17.40
2018-06-27T22:22:11.918Z,17.40
2018-06-27T22:24:42.726Z,17.40
2018-06-27T22:27:13.691Z,17.40
2018-06-27T22:29:44.537Z,17.40
2018-06-27T22:32:15.352Z,17.30
2018-06-27T22:34:46.256Z,17.30
2018-06-27T22:37:17.056Z,17.30
2018-06-27T22:39:49.031Z,17.30
2018-06-27T22:42:20.424Z,17.30
2018-06-27T22:44:52.268Z,17.30
2018-06-27T22:47:23.789Z,17.30
2018-06-27T22:49:54.925Z,17.20
2018-06-27T22:52:26.844Z,17.20
2018-06-27T22:54:58.138Z,17.20
2018-06-27T22:57:29.367Z,17.20
2018-06-27T23:00:00.679Z,17.20
2018-06-27T23:02:32.040Z,17.10
2018-06-27T23:05:03.700Z,17.20
2018-06-27T23:07:35.236Z,17.20
2018-06-27T23:10:07.683Z,17.10
2018-06-27T23:12:38.583Z,17.00
2018-06-27T23:15:09.475Z,17.00
2018-06-27T23:17:40.396Z,17.10
2018-06-27T23:20:11.253Z,17.10
2018-06-27T23:22:45.392Z,17.10
2018-06-27T23:25:16.381Z,17.10
2018-06-27T23:27:47.638Z,17.10
2018-06-27T23:30:18.515Z,17.10
2018-06-27T23:32:49.423Z,17.10
2018-06-27T23:35:20.275Z,17.20
2018-06-27T23:37:51.576Z,17.20
2018-06-27T23:40:23.087Z,17.20
2018-06-27T23:42:54.421Z,17.10
2018-06-27T23:45:26.592Z,17.10
2018-06-27T23:47:58.371Z,17.30
2018-06-27T23:50:29.599Z,17.10
2018-06-27T23:53:00.845Z,17.20
2018-06-27T23:55:31.716Z,17.10
2018-06-27T23:58:02.621Z,17.10
